INFORMAÇÕES DO AERODROMO
Icao Aerodromo SBFN Nome do Aerodromo Fernando de Noronha Airport Cidade Fernando De Noronha
Código GPS SBFN Elevação Média 193 ft Tipo de Aerodromo Aeroporto Médio Porte

INFORMAÇÃO DE PISTA
Pista 12 Comprimento da Pista 6053 ft Largura da Pista 148 ft
Elevação da Pista 0 ft Distância de Area de Escape da Pista 0 ft Orientação da Pista 0
Pista 30 Comprimento da Pista 6053 ft Largura da Pista 148 ft
Elevação da Pista 0 ft Distância de Area de Escape da Pista 0 ft Orientação da Pista 0

FREQUÊNCIAS DO AERODROMO
Tipo AFIS Nome NORONHA RD Frequência 125.9 MHZ

INFORMAÇÕES DE NAVEGAÇÃO PRÓXIMO AO AERODROMO
Tipo VOR-DME Nome Fernando Frequência 113700 KHZ
Tipo NDB Nome Noronha Frequência 300 KHZ

Informações de Meteorologia(METAR atual)
METAR DE SBFN
ADDS - METARS form results

(2330 UTC 20 September 2020)
Data provider http://aviationweather.gov/metar/data/
 
Forecast for: SBFN (FERNANDO DE NORO, BR)
Text: TAF SBFN 202000Z 2100/2112 13015KT 9999 SCT018 TN26/2109Z TX29/2112Z RMK PGB
Forecast period: 0000 to 1200 UTC 21 September 2020
Forecast type: FROM: standard forecast or significant change
Winds: from the SE (130 degrees) at 17 MPH (15 knots; 7.7 m/s)
Visibility: 6 or more miles (10+ km)
Ceiling: at least 12,000 feet AGL
Clouds: scattered clouds at 1800 feet AGL
Weather: no significant weather forecast for this period

MAPA DO AERODROMO


Desenvolvido por Virtual Airlines Manager




Modificado por Grupo Brasil Amigos